This is the latest recevied weather packets stored in our database for station/object EFTU. If no packets are shown the sender has not sent any weather packets the latest 10 day(s).
| Time | Temp. | Humidity | Pressure | Rain* | Wind** | Luminosity | Snow |
|---|---|---|---|---|---|---|---|
| 1777740428 | 14.44° C | 50% | 1008.1 hPa | - | - | - | - |
| 1777739227 | 15° C | 47% | 1008.3 hPa | - | - | - | - |
| 1777738028 | 15.56° C | 44% | 1008.4 hPa | - | - | - | - |
| 1777736827 | 16.11° C | 41% | 1008.6 hPa | - | - | - | - |
| 1777735627 | 17.78° C | 36% | 1008.8 hPa | - | - | - | - |
| 1777734428 | 18.33° C | 34% | 1008.9 hPa | - | - | - | - |
| 1777733227 | 18.89° C | 31% | 1008.9 hPa | - | - | - | - |
| 1777732027 | 18.89° C | 30% | 1009.1 hPa | - | - | - | - |
| 1777729627 | 18.89° C | 29% | 1009.3 hPa | - | - | - | - |
| 1777728427 | 18.89° C | 28% | 1009.5 hPa | - | - | - | - |
| 1777727227 | 18.89° C | 28% | 1009.4 hPa | - | - | - | - |
| 1777726027 | 18.33° C | 30% | 1009.6 hPa | - | - | - | - |
| 1777724827 | 17.78° C | 31% | 1009.8 hPa | - | - | - | - |
| 1777723627 | 17.78° C | 31% | 1009.8 hPa | - | - | - | - |
| 1777722428 | 17.78° C | 32% | 1009.9 hPa | - | - | - | - |
| 1777721227 | 17.78° C | 32% | 1010 hPa | - | - | - | - |
| 1777720027 | 17.78° C | 35% | 1010.1 hPa | - | - | - | - |
| 1777718827 | 17.78° C | 37% | 1010.2 hPa | - | - | - | - |
| 1777717627 | 18.33° C | 35% | 1010.2 hPa | - | - | - | - |
| 1777716427 | 17.78° C | 36% | 1010.1 hPa | - | - | - | - |
| 1777715226 | 17.78° C | 37% | 1010.1 hPa | - | - | - | - |
| 1777714027 | 17.22° C | 36% | 1010.2 hPa | - | - | - | - |
| 1777712826 | 16.67° C | 38% | 1010.4 hPa | - | - | - | - |
| 1777711626 | 16.11° C | 38% | 1010.6 hPa | - | - | - | - |
| 1777710426 | 16.11° C | 40% | 1010.8 hPa | - | - | - | - |
* Rain since midnight (hover to see other rain measurements)
** Current wind speed in m/s (hover to see current wind gust speed)